sensor_id;sensor_type;location;lat;lon;timestamp;P1;durP1;ratioP1;P2;durP2;ratioP2
81170;SDS011;70644;44.818;20.478;2024-02-23T00:00:45;10.50;;;9.05;;
81170;SDS011;70644;44.818;20.478;2024-02-23T00:03:11;10.27;;;8.30;;
81170;SDS011;70644;44.818;20.478;2024-02-23T00:05:37;10.32;;;8.52;;
81170;SDS011;70644;44.818;20.478;2024-02-23T00:08:03;10.15;;;8.40;;
81170;SDS011;70644;44.818;20.478;2024-02-23T00:10:29;9.98;;;8.15;;
81170;SDS011;70644;44.818;20.478;2024-02-23T00:12:56;10.55;;;8.30;;
81170;SDS011;70644;44.818;20.478;2024-02-23T00:15:22;9.80;;;8.07;;
81170;SDS011;70644;44.818;20.478;2024-02-23T00:17:50;10.43;;;8.45;;
81170;SDS011;70644;44.818;20.478;2024-02-23T00:20:16;10.32;;;8.18;;
81170;SDS011;70644;44.818;20.478;2024-02-23T00:22:42;10.05;;;7.88;;
81170;SDS011;70644;44.818;20.478;2024-02-23T00:25:08;11.63;;;8.57;;
81170;SDS011;70644;44.818;20.478;2024-02-23T00:27:34;10.20;;;7.95;;
81170;SDS011;70644;44.818;20.478;2024-02-23T00:30:00;9.48;;;8.15;;
81170;SDS011;70644;44.818;20.478;2024-02-23T00:32:26;9.15;;;8.02;;
81170;SDS011;70644;44.818;20.478;2024-02-23T00:34:53;11.05;;;8.32;;
81170;SDS011;70644;44.818;20.478;2024-02-23T00:37:19;10.05;;;7.88;;
81170;SDS011;70644;44.818;20.478;2024-02-23T00:39:45;8.77;;;7.10;;
81170;SDS011;70644;44.818;20.478;2024-02-23T00:42:11;8.60;;;7.53;;
81170;SDS011;70644;44.818;20.478;2024-02-23T00:44:38;9.38;;;7.13;;
81170;SDS011;70644;44.818;20.478;2024-02-23T00:47:04;9.80;;;8.25;;
81170;SDS011;70644;44.818;20.478;2024-02-23T00:49:30;9.48;;;7.57;;
81170;SDS011;70644;44.818;20.478;2024-02-23T00:51:56;8.93;;;7.57;;
81170;SDS011;70644;44.818;20.478;2024-02-23T00:54:23;9.80;;;7.55;;
81170;SDS011;70644;44.818;20.478;2024-02-23T00:56:49;8.98;;;7.28;;
81170;SDS011;70644;44.818;20.478;2024-02-23T00:59:15;9.70;;;7.07;;
81170;SDS011;70644;44.818;20.478;2024-02-23T01:01:41;9.00;;;6.80;;
81170;SDS011;70644;44.818;20.478;2024-02-23T01:04:07;9.82;;;7.28;;
81170;SDS011;70644;44.818;20.478;2024-02-23T01:06:33;8.68;;;6.68;;
81170;SDS011;70644;44.818;20.478;2024-02-23T01:08:59;9.15;;;7.10;;
81170;SDS011;70644;44.818;20.478;2024-02-23T01:11:25;8.65;;;6.90;;
81170;SDS011;70644;44.818;20.478;2024-02-23T01:13:51;8.60;;;6.55;;
81170;SDS011;70644;44.818;20.478;2024-02-23T01:16:17;8.15;;;6.53;;
81170;SDS011;70644;44.818;20.478;2024-02-23T01:18:43;8.75;;;6.43;;
81170;SDS011;70644;44.818;20.478;2024-02-23T01:21:10;8.13;;;6.80;;
81170;SDS011;70644;44.818;20.478;2024-02-23T01:23:36;8.55;;;6.40;;
81170;SDS011;70644;44.818;20.478;2024-02-23T01:26:02;8.32;;;7.43;;
81170;SDS011;70644;44.818;20.478;2024-02-23T01:28:28;7.32;;;6.20;;
81170;SDS011;70644;44.818;20.478;2024-02-23T01:30:54;9.50;;;6.43;;
81170;SDS011;70644;44.818;20.478;2024-02-23T01:33:20;7.63;;;6.45;;
81170;SDS011;70644;44.818;20.478;2024-02-23T01:35:46;7.80;;;6.35;;
81170;SDS011;70644;44.818;20.478;2024-02-23T01:38:12;7.35;;;5.95;;
81170;SDS011;70644;44.818;20.478;2024-02-23T01:40:45;7.20;;;5.93;;
81170;SDS011;70644;44.818;20.478;2024-02-23T01:43:12;8.07;;;6.00;;
81170;SDS011;70644;44.818;20.478;2024-02-23T01:45:38;7.50;;;6.47;;
81170;SDS011;70644;44.818;20.478;2024-02-23T01:48:04;7.15;;;5.75;;
81170;SDS011;70644;44.818;20.478;2024-02-23T01:50:32;7.30;;;6.47;;
81170;SDS011;70644;44.818;20.478;2024-02-23T01:53:00;7.80;;;5.85;;
81170;SDS011;70644;44.818;20.478;2024-02-23T01:55:26;6.78;;;5.22;;
81170;SDS011;70644;44.818;20.478;2024-02-23T01:57:52;8.10;;;6.03;;
81170;SDS011;70644;44.818;20.478;2024-02-23T02:00:19;7.80;;;6.00;;
81170;SDS011;70644;44.818;20.478;2024-02-23T02:02:47;7.22;;;5.60;;
81170;SDS011;70644;44.818;20.478;2024-02-23T02:05:13;7.50;;;6.05;;
81170;SDS011;70644;44.818;20.478;2024-02-23T02:07:40;6.72;;;5.38;;
81170;SDS011;70644;44.818;20.478;2024-02-23T02:10:07;7.20;;;5.10;;
81170;SDS011;70644;44.818;20.478;2024-02-23T02:12:34;6.75;;;5.45;;
81170;SDS011;70644;44.818;20.478;2024-02-23T02:15:00;6.30;;;5.43;;
81170;SDS011;70644;44.818;20.478;2024-02-23T02:17:29;7.18;;;5.30;;
81170;SDS011;70644;44.818;20.478;2024-02-23T02:19:56;7.10;;;5.30;;
81170;SDS011;70644;44.818;20.478;2024-02-23T02:22:25;6.75;;;5.25;;
81170;SDS011;70644;44.818;20.478;2024-02-23T02:24:51;6.25;;;5.00;;
81170;SDS011;70644;44.818;20.478;2024-02-23T02:27:17;6.35;;;4.93;;
81170;SDS011;70644;44.818;20.478;2024-02-23T02:29:43;5.97;;;4.82;;
81170;SDS011;70644;44.818;20.478;2024-02-23T02:32:09;6.50;;;5.00;;
81170;SDS011;70644;44.818;20.478;2024-02-23T02:34:35;5.88;;;4.70;;
81170;SDS011;70644;44.818;20.478;2024-02-23T02:37:01;6.47;;;5.22;;
81170;SDS011;70644;44.818;20.478;2024-02-23T02:39:27;6.75;;;5.07;;
81170;SDS011;70644;44.818;20.478;2024-02-23T02:41:54;5.65;;;4.68;;
81170;SDS011;70644;44.818;20.478;2024-02-23T02:44:20;6.45;;;4.60;;
81170;SDS011;70644;44.818;20.478;2024-02-23T02:46:46;6.32;;;4.70;;
81170;SDS011;70644;44.818;20.478;2024-02-23T02:49:13;5.47;;;4.43;;
81170;SDS011;70644;44.818;20.478;2024-02-23T02:51:39;6.03;;;4.57;;
81170;SDS011;70644;44.818;20.478;2024-02-23T02:54:05;6.05;;;4.60;;
81170;SDS011;70644;44.818;20.478;2024-02-23T02:56:32;5.68;;;4.03;;
81170;SDS011;70644;44.818;20.478;2024-02-23T02:58:58;6.47;;;4.85;;
81170;SDS011;70644;44.818;20.478;2024-02-23T03:01:24;6.43;;;4.38;;
81170;SDS011;70644;44.818;20.478;2024-02-23T03:03:50;5.18;;;4.43;;
81170;SDS011;70644;44.818;20.478;2024-02-23T03:06:16;6.38;;;4.50;;
81170;SDS011;70644;44.818;20.478;2024-02-23T03:08:42;5.70;;;4.63;;
81170;SDS011;70644;44.818;20.478;2024-02-23T03:11:08;5.78;;;4.60;;
81170;SDS011;70644;44.818;20.478;2024-02-23T03:13:34;5.30;;;3.97;;
81170;SDS011;70644;44.818;20.478;2024-02-23T03:16:01;4.97;;;3.92;;
81170;SDS011;70644;44.818;20.478;2024-02-23T03:18:27;5.53;;;4.43;;
81170;SDS011;70644;44.818;20.478;2024-02-23T03:20:53;6.28;;;4.40;;
81170;SDS011;70644;44.818;20.478;2024-02-23T03:23:20;5.35;;;3.95;;
81170;SDS011;70644;44.818;20.478;2024-02-23T03:25:46;5.15;;;4.65;;
81170;SDS011;70644;44.818;20.478;2024-02-23T03:28:12;6.07;;;4.45;;
81170;SDS011;70644;44.818;20.478;2024-02-23T03:30:38;4.93;;;4.07;;
81170;SDS011;70644;44.818;20.478;2024-02-23T03:33:04;5.65;;;5.10;;
81170;SDS011;70644;44.818;20.478;2024-02-23T03:35:30;5.57;;;4.00;;
81170;SDS011;70644;44.818;20.478;2024-02-23T03:37:56;5.22;;;3.95;;
81170;SDS011;70644;44.818;20.478;2024-02-23T03:40:23;5.53;;;3.95;;
81170;SDS011;70644;44.818;20.478;2024-02-23T03:42:49;4.68;;;4.00;;
81170;SDS011;70644;44.818;20.478;2024-02-23T03:45:15;4.90;;;3.70;;
81170;SDS011;70644;44.818;20.478;2024-02-23T03:47:41;5.55;;;4.00;;
81170;SDS011;70644;44.818;20.478;2024-02-23T03:50:07;4.93;;;3.88;;
81170;SDS011;70644;44.818;20.478;2024-02-23T03:52:34;4.97;;;3.83;;
81170;SDS011;70644;44.818;20.478;2024-02-23T03:55:00;5.05;;;3.65;;
81170;SDS011;70644;44.818;20.478;2024-02-23T03:57:26;4.13;;;3.67;;
81170;SDS011;70644;44.818;20.478;2024-02-23T03:59:52;4.97;;;3.60;;
81170;SDS011;70644;44.818;20.478;2024-02-23T04:02:18;4.82;;;3.80;;
81170;SDS011;70644;44.818;20.478;2024-02-23T04:04:45;4.82;;;3.88;;
81170;SDS011;70644;44.818;20.478;2024-02-23T04:07:11;5.28;;;3.83;;
81170;SDS011;70644;44.818;20.478;2024-02-23T04:09:37;4.55;;;3.53;;
81170;SDS011;70644;44.818;20.478;2024-02-23T04:12:03;4.30;;;3.70;;
81170;SDS011;70644;44.818;20.478;2024-02-23T04:14:32;4.97;;;3.92;;
81170;SDS011;70644;44.818;20.478;2024-02-23T04:17:01;4.30;;;3.60;;
81170;SDS011;70644;44.818;20.478;2024-02-23T04:19:27;4.80;;;3.80;;
81170;SDS011;70644;44.818;20.478;2024-02-23T04:21:53;5.03;;;3.83;;
81170;SDS011;70644;44.818;20.478;2024-02-23T04:24:20;4.30;;;3.35;;
81170;SDS011;70644;44.818;20.478;2024-02-23T04:26:46;4.53;;;3.35;;
81170;SDS011;70644;44.818;20.478;2024-02-23T04:29:12;5.47;;;3.95;;
81170;SDS011;70644;44.818;20.478;2024-02-23T04:31:38;5.07;;;3.83;;
81170;SDS011;70644;44.818;20.478;2024-02-23T04:34:04;4.50;;;3.42;;
81170;SDS011;70644;44.818;20.478;2024-02-23T04:36:30;4.45;;;3.80;;
81170;SDS011;70644;44.818;20.478;2024-02-23T04:38:56;4.97;;;3.63;;
81170;SDS011;70644;44.818;20.478;2024-02-23T04:41:22;4.38;;;3.47;;
81170;SDS011;70644;44.818;20.478;2024-02-23T04:43:49;4.38;;;3.47;;
81170;SDS011;70644;44.818;20.478;2024-02-23T04:46:17;4.28;;;3.47;;
81170;SDS011;70644;44.818;20.478;2024-02-23T04:48:43;4.20;;;3.17;;
81170;SDS011;70644;44.818;20.478;2024-02-23T04:51:09;4.22;;;3.53;;
81170;SDS011;70644;44.818;20.478;2024-02-23T04:53:38;4.80;;;3.50;;
81170;SDS011;70644;44.818;20.478;2024-02-23T04:56:04;4.03;;;3.58;;
81170;SDS011;70644;44.818;20.478;2024-02-23T04:58:31;4.35;;;3.60;;
81170;SDS011;70644;44.818;20.478;2024-02-23T05:00:57;3.78;;;3.17;;
81170;SDS011;70644;44.818;20.478;2024-02-23T05:03:23;4.53;;;3.30;;
81170;SDS011;70644;44.818;20.478;2024-02-23T05:05:49;4.47;;;3.22;;
81170;SDS011;70644;44.818;20.478;2024-02-23T05:08:19;4.35;;;3.40;;
81170;SDS011;70644;44.818;20.478;2024-02-23T05:10:46;4.13;;;3.10;;
81170;SDS011;70644;44.818;20.478;2024-02-23T05:13:12;4.13;;;3.22;;
81170;SDS011;70644;44.818;20.478;2024-02-23T05:15:38;3.97;;;3.38;;
81170;SDS011;70644;44.818;20.478;2024-02-23T05:18:05;4.35;;;3.45;;
81170;SDS011;70644;44.818;20.478;2024-02-23T05:20:31;5.38;;;3.38;;
81170;SDS011;70644;44.818;20.478;2024-02-23T05:22:57;4.45;;;3.13;;
81170;SDS011;70644;44.818;20.478;2024-02-23T05:25:23;4.68;;;3.58;;
81170;SDS011;70644;44.818;20.478;2024-02-23T05:27:50;4.28;;;3.08;;
81170;SDS011;70644;44.818;20.478;2024-02-23T05:30:17;4.65;;;3.30;;
81170;SDS011;70644;44.818;20.478;2024-02-23T05:32:43;4.10;;;3.30;;
81170;SDS011;70644;44.818;20.478;2024-02-23T05:35:09;5.10;;;3.78;;
81170;SDS011;70644;44.818;20.478;2024-02-23T05:37:35;4.35;;;3.13;;
81170;SDS011;70644;44.818;20.478;2024-02-23T05:40:02;4.00;;;3.00;;
81170;SDS011;70644;44.818;20.478;2024-02-23T05:42:37;5.57;;;3.25;;
81170;SDS011;70644;44.818;20.478;2024-02-23T05:45:04;4.88;;;3.63;;
81170;SDS011;70644;44.818;20.478;2024-02-23T05:47:34;3.85;;;3.08;;
81170;SDS011;70644;44.818;20.478;2024-02-23T05:50:00;4.28;;;3.30;;
81170;SDS011;70644;44.818;20.478;2024-02-23T05:52:26;4.78;;;3.00;;
81170;SDS011;70644;44.818;20.478;2024-02-23T05:54:52;4.25;;;3.85;;
81170;SDS011;70644;44.818;20.478;2024-02-23T05:57:21;4.55;;;3.40;;
81170;SDS011;70644;44.818;20.478;2024-02-23T05:59:47;4.15;;;3.20;;
81170;SDS011;70644;44.818;20.478;2024-02-23T06:02:13;4.75;;;3.33;;
81170;SDS011;70644;44.818;20.478;2024-02-23T06:04:42;4.90;;;3.30;;
81170;SDS011;70644;44.818;20.478;2024-02-23T06:07:08;3.75;;;2.97;;
81170;SDS011;70644;44.818;20.478;2024-02-23T06:09:35;4.25;;;3.00;;
81170;SDS011;70644;44.818;20.478;2024-02-23T06:12:01;4.32;;;3.38;;
81170;SDS011;70644;44.818;20.478;2024-02-23T06:14:27;5.20;;;3.60;;
81170;SDS011;70644;44.818;20.478;2024-02-23T06:16:53;4.30;;;3.15;;
81170;SDS011;70644;44.818;20.478;2024-02-23T06:19:21;4.53;;;3.00;;
81170;SDS011;70644;44.818;20.478;2024-02-23T06:21:47;4.00;;;3.47;;
81170;SDS011;70644;44.818;20.478;2024-02-23T06:24:14;4.20;;;3.15;;
81170;SDS011;70644;44.818;20.478;2024-02-23T06:26:40;4.10;;;3.03;;
81170;SDS011;70644;44.818;20.478;2024-02-23T06:29:06;4.32;;;3.53;;
81170;SDS011;70644;44.818;20.478;2024-02-23T06:31:38;4.70;;;3.10;;
81170;SDS011;70644;44.818;20.478;2024-02-23T06:34:06;3.88;;;3.13;;
81170;SDS011;70644;44.818;20.478;2024-02-23T06:36:33;5.35;;;3.38;;
81170;SDS011;70644;44.818;20.478;2024-02-23T06:38:59;4.15;;;3.13;;
81170;SDS011;70644;44.818;20.478;2024-02-23T06:41:25;4.10;;;3.17;;
81170;SDS011;70644;44.818;20.478;2024-02-23T06:43:51;5.35;;;3.30;;
81170;SDS011;70644;44.818;20.478;2024-02-23T06:46:18;4.18;;;3.00;;
81170;SDS011;70644;44.818;20.478;2024-02-23T06:48:46;4.93;;;3.28;;
81170;SDS011;70644;44.818;20.478;2024-02-23T06:51:12;3.85;;;3.03;;
81170;SDS011;70644;44.818;20.478;2024-02-23T06:53:39;4.22;;;3.20;;
81170;SDS011;70644;44.818;20.478;2024-02-23T06:56:05;3.83;;;2.88;;
81170;SDS011;70644;44.818;20.478;2024-02-23T06:58:31;4.07;;;3.38;;
81170;SDS011;70644;44.818;20.478;2024-02-23T07:00:57;3.92;;;2.90;;
81170;SDS011;70644;44.818;20.478;2024-02-23T07:03:24;4.85;;;3.63;;
81170;SDS011;70644;44.818;20.478;2024-02-23T07:05:50;4.32;;;3.47;;
81170;SDS011;70644;44.818;20.478;2024-02-23T07:08:17;8.15;;;4.68;;
81170;SDS011;70644;44.818;20.478;2024-02-23T07:10:43;8.75;;;5.00;;
81170;SDS011;70644;44.818;20.478;2024-02-23T07:13:09;11.63;;;5.57;;
81170;SDS011;70644;44.818;20.478;2024-02-23T07:15:35;8.98;;;4.80;;
81170;SDS011;70644;44.818;20.478;2024-02-23T07:18:01;6.97;;;4.53;;
81170;SDS011;70644;44.818;20.478;2024-02-23T07:20:27;9.23;;;5.03;;
81170;SDS011;70644;44.818;20.478;2024-02-23T07:22:53;6.53;;;5.13;;
81170;SDS011;70644;44.818;20.478;2024-02-23T07:25:20;7.53;;;4.80;;
81170;SDS011;70644;44.818;20.478;2024-02-23T07:27:46;6.43;;;4.55;;
81170;SDS011;70644;44.818;20.478;2024-02-23T07:30:16;5.75;;;4.20;;
81170;SDS011;70644;44.818;20.478;2024-02-23T07:32:42;7.45;;;4.90;;
81170;SDS011;70644;44.818;20.478;2024-02-23T07:35:09;5.50;;;4.20;;
81170;SDS011;70644;44.818;20.478;2024-02-23T07:37:36;7.32;;;4.65;;
81170;SDS011;70644;44.818;20.478;2024-02-23T07:40:02;6.15;;;4.55;;
81170;SDS011;70644;44.818;20.478;2024-02-23T07:42:29;5.63;;;4.13;;
81170;SDS011;70644;44.818;20.478;2024-02-23T07:44:55;7.28;;;4.28;;
81170;SDS011;70644;44.818;20.478;2024-02-23T07:47:21;6.00;;;4.20;;
81170;SDS011;70644;44.818;20.478;2024-02-23T07:49:47;7.00;;;4.10;;
81170;SDS011;70644;44.818;20.478;2024-02-23T07:52:13;6.38;;;5.00;;
81170;SDS011;70644;44.818;20.478;2024-02-23T07:54:39;7.05;;;4.47;;
81170;SDS011;70644;44.818;20.478;2024-02-23T07:57:06;4.45;;;3.85;;
81170;SDS011;70644;44.818;20.478;2024-02-23T07:59:32;6.45;;;4.00;;
81170;SDS011;70644;44.818;20.478;2024-02-23T08:02:00;8.13;;;4.10;;
81170;SDS011;70644;44.818;20.478;2024-02-23T08:04:26;5.55;;;4.13;;
81170;SDS011;70644;44.818;20.478;2024-02-23T08:06:52;5.22;;;4.05;;
81170;SDS011;70644;44.818;20.478;2024-02-23T08:09:18;5.90;;;4.30;;
81170;SDS011;70644;44.818;20.478;2024-02-23T08:11:47;6.25;;;3.92;;
81170;SDS011;70644;44.818;20.478;2024-02-23T08:14:14;5.60;;;4.03;;
81170;SDS011;70644;44.818;20.478;2024-02-23T08:16:40;5.60;;;4.10;;
81170;SDS011;70644;44.818;20.478;2024-02-23T08:19:06;6.75;;;4.32;;
81170;SDS011;70644;44.818;20.478;2024-02-23T08:21:33;5.93;;;3.70;;
81170;SDS011;70644;44.818;20.478;2024-02-23T08:23:59;5.63;;;4.15;;
81170;SDS011;70644;44.818;20.478;2024-02-23T08:26:25;5.13;;;3.65;;
81170;SDS011;70644;44.818;20.478;2024-02-23T08:28:51;5.78;;;3.80;;
81170;SDS011;70644;44.818;20.478;2024-02-23T08:31:17;8.57;;;4.30;;
81170;SDS011;70644;44.818;20.478;2024-02-23T08:33:43;6.50;;;4.20;;
81170;SDS011;70644;44.818;20.478;2024-02-23T08:36:10;5.80;;;4.45;;
81170;SDS011;70644;44.818;20.478;2024-02-23T08:38:36;5.05;;;4.00;;
81170;SDS011;70644;44.818;20.478;2024-02-23T08:41:02;6.28;;;3.90;;
81170;SDS011;70644;44.818;20.478;2024-02-23T08:43:28;6.72;;;3.83;;
81170;SDS011;70644;44.818;20.478;2024-02-23T08:45:54;5.90;;;4.35;;
81170;SDS011;70644;44.818;20.478;2024-02-23T08:48:20;6.38;;;4.07;;
81170;SDS011;70644;44.818;20.478;2024-02-23T08:50:46;7.43;;;4.40;;
81170;SDS011;70644;44.818;20.478;2024-02-23T08:53:12;5.93;;;4.07;;
81170;SDS011;70644;44.818;20.478;2024-02-23T08:55:39;7.03;;;4.03;;
81170;SDS011;70644;44.818;20.478;2024-02-23T08:58:05;5.97;;;4.18;;
81170;SDS011;70644;44.818;20.478;2024-02-23T09:00:31;5.63;;;3.78;;
81170;SDS011;70644;44.818;20.478;2024-02-23T09:02:57;6.90;;;4.38;;
81170;SDS011;70644;44.818;20.478;2024-02-23T09:05:23;6.60;;;4.30;;
81170;SDS011;70644;44.818;20.478;2024-02-23T09:07:50;4.97;;;4.07;;
81170;SDS011;70644;44.818;20.478;2024-02-23T09:10:16;5.25;;;3.72;;
81170;SDS011;70644;44.818;20.478;2024-02-23T09:15:31;6.88;;;4.43;;
81170;SDS011;70644;44.818;20.478;2024-02-23T09:17:58;7.00;;;4.20;;
81170;SDS011;70644;44.818;20.478;2024-02-23T09:20:24;6.72;;;4.70;;
81170;SDS011;70644;44.818;20.478;2024-02-23T09:22:50;5.57;;;4.47;;
81170;SDS011;70644;44.818;20.478;2024-02-23T09:25:16;5.70;;;4.32;;
81170;SDS011;70644;44.818;20.478;2024-02-23T09:27:42;6.88;;;4.47;;
81170;SDS011;70644;44.818;20.478;2024-02-23T09:30:10;6.03;;;4.25;;
81170;SDS011;70644;44.818;20.478;2024-02-23T09:32:37;6.30;;;4.75;;
81170;SDS011;70644;44.818;20.478;2024-02-23T09:35:03;6.35;;;4.40;;
81170;SDS011;70644;44.818;20.478;2024-02-23T09:37:30;6.55;;;4.40;;
81170;SDS011;70644;44.818;20.478;2024-02-23T09:39:56;5.35;;;4.15;;
81170;SDS011;70644;44.818;20.478;2024-02-23T09:42:22;8.40;;;4.93;;
81170;SDS011;70644;44.818;20.478;2024-02-23T09:45:00;10.43;;;5.05;;
81170;SDS011;70644;44.818;20.478;2024-02-23T09:47:27;5.80;;;4.22;;
81170;SDS011;70644;44.818;20.478;2024-02-23T09:49:53;9.57;;;5.25;;
81170;SDS011;70644;44.818;20.478;2024-02-23T09:52:20;6.80;;;4.20;;
81170;SDS011;70644;44.818;20.478;2024-02-23T09:54:47;7.50;;;4.40;;
81170;SDS011;70644;44.818;20.478;2024-02-23T09:57:14;6.88;;;4.22;;
81170;SDS011;70644;44.818;20.478;2024-02-23T09:59:41;5.25;;;4.07;;
81170;SDS011;70644;44.818;20.478;2024-02-23T10:02:08;6.10;;;4.05;;
81170;SDS011;70644;44.818;20.478;2024-02-23T10:04:40;7.03;;;4.18;;
81170;SDS011;70644;44.818;20.478;2024-02-23T10:07:08;5.38;;;4.05;;
81170;SDS011;70644;44.818;20.478;2024-02-23T10:09:34;6.00;;;4.50;;
81170;SDS011;70644;44.818;20.478;2024-02-23T10:12:01;9.23;;;4.68;;
81170;SDS011;70644;44.818;20.478;2024-02-23T10:14:27;5.43;;;4.40;;
81170;SDS011;70644;44.818;20.478;2024-02-23T10:16:53;7.55;;;4.30;;
81170;SDS011;70644;44.818;20.478;2024-02-23T10:19:20;6.13;;;4.07;;
81170;SDS011;70644;44.818;20.478;2024-02-23T10:21:47;6.22;;;4.25;;
81170;SDS011;70644;44.818;20.478;2024-02-23T10:24:17;6.63;;;4.30;;
81170;SDS011;70644;44.818;20.478;2024-02-23T10:26:43;6.18;;;3.97;;
81170;SDS011;70644;44.818;20.478;2024-02-23T10:29:09;9.27;;;4.45;;
81170;SDS011;70644;44.818;20.478;2024-02-23T10:31:36;7.35;;;4.22;;
81170;SDS011;70644;44.818;20.478;2024-02-23T10:34:09;6.30;;;4.00;;
81170;SDS011;70644;44.818;20.478;2024-02-23T10:36:42;7.22;;;4.30;;
81170;SDS011;70644;44.818;20.478;2024-02-23T10:39:09;7.80;;;4.45;;
81170;SDS011;70644;44.818;20.478;2024-02-23T10:41:37;8.02;;;4.53;;
81170;SDS011;70644;44.818;20.478;2024-02-23T10:44:05;7.57;;;4.90;;
81170;SDS011;70644;44.818;20.478;2024-02-23T10:46:31;5.55;;;4.38;;
81170;SDS011;70644;44.818;20.478;2024-02-23T10:48:58;6.07;;;4.43;;
81170;SDS011;70644;44.818;20.478;2024-02-23T10:51:24;6.10;;;4.25;;
81170;SDS011;70644;44.818;20.478;2024-02-23T10:53:50;8.23;;;4.53;;
81170;SDS011;70644;44.818;20.478;2024-02-23T10:56:18;6.68;;;4.60;;
81170;SDS011;70644;44.818;20.478;2024-02-23T10:58:44;6.50;;;4.50;;
81170;SDS011;70644;44.818;20.478;2024-02-23T11:01:11;7.75;;;4.60;;
81170;SDS011;70644;44.818;20.478;2024-02-23T11:03:38;7.63;;;4.93;;
81170;SDS011;70644;44.818;20.478;2024-02-23T11:06:08;6.80;;;4.55;;
81170;SDS011;70644;44.818;20.478;2024-02-23T11:08:34;7.43;;;4.90;;
81170;SDS011;70644;44.818;20.478;2024-02-23T11:11:10;5.82;;;4.63;;
81170;SDS011;70644;44.818;20.478;2024-02-23T11:13:39;7.10;;;4.63;;
81170;SDS011;70644;44.818;20.478;2024-02-23T11:16:06;7.18;;;4.93;;
81170;SDS011;70644;44.818;20.478;2024-02-23T11:18:34;7.38;;;4.57;;
81170;SDS011;70644;44.818;20.478;2024-02-23T11:21:01;8.93;;;4.85;;
81170;SDS011;70644;44.818;20.478;2024-02-23T11:23:38;7.55;;;4.57;;
81170;SDS011;70644;44.818;20.478;2024-02-23T11:26:05;5.85;;;4.20;;
81170;SDS011;70644;44.818;20.478;2024-02-23T11:28:33;7.88;;;4.75;;
81170;SDS011;70644;44.818;20.478;2024-02-23T11:30:59;7.43;;;5.07;;
81170;SDS011;70644;44.818;20.478;2024-02-23T11:33:34;6.20;;;4.82;;
81170;SDS011;70644;44.818;20.478;2024-02-23T11:36:07;8.02;;;5.05;;
81170;SDS011;70644;44.818;20.478;2024-02-23T11:38:33;6.20;;;4.18;;
81170;SDS011;70644;44.818;20.478;2024-02-23T11:41:00;6.60;;;4.65;;
81170;SDS011;70644;44.818;20.478;2024-02-23T11:43:26;6.57;;;4.93;;
81170;SDS011;70644;44.818;20.478;2024-02-23T11:45:53;8.65;;;5.20;;
81170;SDS011;70644;44.818;20.478;2024-02-23T11:48:19;9.95;;;6.60;;
81170;SDS011;70644;44.818;20.478;2024-02-23T11:50:47;7.25;;;5.38;;
81170;SDS011;70644;44.818;20.478;2024-02-23T11:53:14;8.50;;;5.53;;
81170;SDS011;70644;44.818;20.478;2024-02-23T11:55:40;8.00;;;6.10;;
81170;SDS011;70644;44.818;20.478;2024-02-23T11:58:07;8.68;;;6.70;;
81170;SDS011;70644;44.818;20.478;2024-02-23T12:00:35;11.00;;;7.20;;
81170;SDS011;70644;44.818;20.478;2024-02-23T12:03:01;9.57;;;7.35;;
81170;SDS011;70644;44.818;20.478;2024-02-23T12:05:29;9.50;;;7.18;;
81170;SDS011;70644;44.818;20.478;2024-02-23T12:07:55;11.43;;;7.15;;
81170;SDS011;70644;44.818;20.478;2024-02-23T12:10:23;9.82;;;7.22;;
81170;SDS011;70644;44.818;20.478;2024-02-23T12:12:51;10.70;;;7.80;;
81170;SDS011;70644;44.818;20.478;2024-02-23T12:15:17;10.18;;;8.27;;
81170;SDS011;70644;44.818;20.478;2024-02-23T12:17:47;10.35;;;8.43;;
81170;SDS011;70644;44.818;20.478;2024-02-23T12:20:13;10.88;;;8.32;;
81170;SDS011;70644;44.818;20.478;2024-02-23T12:22:42;9.48;;;8.45;;
81170;SDS011;70644;44.818;20.478;2024-02-23T12:25:08;11.55;;;8.40;;
81170;SDS011;70644;44.818;20.478;2024-02-23T12:27:34;11.10;;;8.45;;
81170;SDS011;70644;44.818;20.478;2024-02-23T12:30:01;9.57;;;7.88;;
81170;SDS011;70644;44.818;20.478;2024-02-23T12:32:27;11.00;;;8.60;;
81170;SDS011;70644;44.818;20.478;2024-02-23T12:34:53;10.43;;;7.35;;
81170;SDS011;70644;44.818;20.478;2024-02-23T12:37:25;9.88;;;8.15;;
81170;SDS011;70644;44.818;20.478;2024-02-23T12:39:51;10.05;;;8.10;;
81170;SDS011;70644;44.818;20.478;2024-02-23T12:42:18;9.85;;;7.80;;
81170;SDS011;70644;44.818;20.478;2024-02-23T12:44:44;9.55;;;7.88;;
81170;SDS011;70644;44.818;20.478;2024-02-23T12:47:10;10.63;;;9.18;;
81170;SDS011;70644;44.818;20.478;2024-02-23T12:49:36;9.25;;;8.27;;
81170;SDS011;70644;44.818;20.478;2024-02-23T12:52:03;9.82;;;7.95;;
81170;SDS011;70644;44.818;20.478;2024-02-23T12:54:30;10.57;;;8.15;;
81170;SDS011;70644;44.818;20.478;2024-02-23T12:56:57;9.10;;;7.75;;
81170;SDS011;70644;44.818;20.478;2024-02-23T12:59:23;9.20;;;7.40;;
81170;SDS011;70644;44.818;20.478;2024-02-23T13:01:49;10.75;;;7.63;;
81170;SDS011;70644;44.818;20.478;2024-02-23T13:04:15;9.77;;;7.85;;
81170;SDS011;70644;44.818;20.478;2024-02-23T13:06:41;9.40;;;7.38;;
81170;SDS011;70644;44.818;20.478;2024-02-23T13:09:08;9.52;;;7.95;;
81170;SDS011;70644;44.818;20.478;2024-02-23T13:11:34;8.35;;;7.15;;
81170;SDS011;70644;44.818;20.478;2024-02-23T13:14:00;9.60;;;7.03;;
81170;SDS011;70644;44.818;20.478;2024-02-23T13:16:27;8.57;;;7.25;;
81170;SDS011;70644;44.818;20.478;2024-02-23T13:18:53;9.73;;;7.30;;
81170;SDS011;70644;44.818;20.478;2024-02-23T13:21:19;9.43;;;7.80;;
81170;SDS011;70644;44.818;20.478;2024-02-23T13:23:46;9.68;;;7.38;;
81170;SDS011;70644;44.818;20.478;2024-02-23T13:26:12;9.88;;;6.80;;
81170;SDS011;70644;44.818;20.478;2024-02-23T13:28:42;8.65;;;6.60;;
81170;SDS011;70644;44.818;20.478;2024-02-23T13:31:09;8.55;;;7.18;;
81170;SDS011;70644;44.818;20.478;2024-02-23T13:33:35;8.98;;;7.07;;
81170;SDS011;70644;44.818;20.478;2024-02-23T13:36:01;8.82;;;7.40;;
81170;SDS011;70644;44.818;20.478;2024-02-23T13:38:30;8.10;;;7.07;;
81170;SDS011;70644;44.818;20.478;2024-02-23T13:41:02;9.00;;;7.10;;
81170;SDS011;70644;44.818;20.478;2024-02-23T13:43:28;9.15;;;6.65;;
81170;SDS011;70644;44.818;20.478;2024-02-23T13:45:54;9.60;;;6.93;;
81170;SDS011;70644;44.818;20.478;2024-02-23T13:48:21;9.32;;;6.93;;
81170;SDS011;70644;44.818;20.478;2024-02-23T13:50:47;8.57;;;7.20;;
81170;SDS011;70644;44.818;20.478;2024-02-23T13:53:14;9.05;;;7.15;;
81170;SDS011;70644;44.818;20.478;2024-02-23T13:55:40;9.57;;;7.05;;
81170;SDS011;70644;44.818;20.478;2024-02-23T13:58:09;10.82;;;7.03;;
81170;SDS011;70644;44.818;20.478;2024-02-23T14:00:37;10.38;;;7.45;;
81170;SDS011;70644;44.818;20.478;2024-02-23T14:03:03;8.93;;;7.20;;
81170;SDS011;70644;44.818;20.478;2024-02-23T14:05:29;10.02;;;7.25;;
81170;SDS011;70644;44.818;20.478;2024-02-23T14:07:55;9.02;;;6.30;;
81170;SDS011;70644;44.818;20.478;2024-02-23T14:10:21;9.68;;;6.88;;
81170;SDS011;70644;44.818;20.478;2024-02-23T14:12:48;10.77;;;7.55;;
81170;SDS011;70644;44.818;20.478;2024-02-23T14:15:16;9.68;;;7.35;;
81170;SDS011;70644;44.818;20.478;2024-02-23T14:17:42;14.23;;;8.23;;
81170;SDS011;70644;44.818;20.478;2024-02-23T14:20:08;10.00;;;7.57;;
81170;SDS011;70644;44.818;20.478;2024-02-23T14:22:35;9.55;;;7.22;;
81170;SDS011;70644;44.818;20.478;2024-02-23T14:25:02;9.60;;;6.85;;
81170;SDS011;70644;44.818;20.478;2024-02-23T14:27:28;8.52;;;6.95;;
81170;SDS011;70644;44.818;20.478;2024-02-23T14:29:54;10.10;;;7.40;;
81170;SDS011;70644;44.818;20.478;2024-02-23T14:32:20;9.00;;;7.22;;